Time;durP1;ratioP1;P1;durP2;ratioP2;P2;SDS_P1;SDS_P2;PMS_P1;PMS_P2;Temp;Humidity;BMP_temperature;BMP_pressure;BME280_temperature;BME280_humidity;BME280_pressure;Samples;Min_cycle;Max_cycle;Signal;HPM_P1;HPM_P2
2022/04/23 00:01:20;;;;;;;7.33;3.10;;;9.80;99.90;;;;;;5011612;28;20189;-64
2022/04/23 00:03:46;;;;;;;11.20;3.40;;;9.90;99.90;;;;;;5011473;28;20167;-64
2022/04/23 00:06:12;;;;;;;9.60;2.80;;;9.80;99.90;;;;;;5011579;28;20685;-64
2022/04/23 00:08:38;;;;;;;11.80;3.20;;;9.80;99.90;;;;;;5011123;28;20233;-62
2022/04/23 00:11:03;;;;;;;11.47;5.93;;;9.80;99.90;;;;;;5010600;28;20548;-62
2022/04/23 00:13:29;;;;;;;8.43;4.00;;;9.80;99.90;;;;;;5011826;28;20720;-64
2022/04/23 00:15:55;;;;;;;12.93;5.87;;;9.80;99.90;;;;;;5011244;28;20187;-64
2022/04/23 00:18:21;;;;;;;9.17;4.33;;;9.80;99.90;;;;;;5011146;28;20258;-64
2022/04/23 00:20:47;;;;;;;10.10;4.10;;;9.80;99.90;;;;;;5011274;28;20190;-65
2022/04/23 00:23:13;;;;;;;22.63;10.77;;;9.80;99.90;;;;;;5009438;28;20528;-65
2022/04/23 00:25:40;;;;;;;17.73;6.67;;;9.70;99.90;;;;;;5010496;28;20187;-65
2022/04/23 00:28:06;;;;;;;22.70;11.07;;;9.80;99.90;;;;;;5011449;28;20174;-65
2022/04/23 00:30:33;;;;;;;10.60;4.77;;;9.70;99.90;;;;;;5010916;28;20178;-65
2022/04/23 00:33:03;;;;;;;7.90;3.57;;;9.60;99.90;;;;;;5010261;28;20187;-65
2022/04/23 00:35:29;;;;;;;8.60;3.63;;;9.60;99.90;;;;;;5009757;28;20205;-65
2022/04/23 00:37:55;;;;;;;7.40;3.20;;;9.40;99.90;;;;;;5010707;28;20170;-65
2022/04/23 00:40:24;;;;;;;10.57;4.23;;;9.40;99.90;;;;;;5011207;28;20221;-65
2022/04/23 00:42:56;;;;;;;10.63;3.80;;;9.40;99.90;;;;;;5011476;28;20213;-65
2022/04/23 00:45:30;;;;;;;9.47;4.20;;;9.40;99.90;;;;;;5010796;28;20254;-65
2022/04/23 00:47:56;;;;;;;8.07;3.70;;;9.40;99.90;;;;;;5010797;28;20190;-65
2022/04/23 00:50:22;;;;;;;8.97;4.07;;;9.40;99.90;;;;;;5010251;28;20649;-63
2022/04/23 00:52:56;;;;;;;7.63;3.80;;;9.30;99.90;;;;;;5009301;28;20182;-64
2022/04/23 00:55:23;;;;;;;12.00;4.27;;;9.30;99.90;;;;;;5010966;28;20178;-64
2022/04/23 00:57:49;;;;;;;12.10;4.00;;;9.20;99.90;;;;;;5010284;28;20222;-64
2022/04/23 01:00:15;;;;;;;7.63;4.27;;;9.20;99.90;;;;;;5008808;28;20261;-65
2022/04/23 01:02:41;;;;;;;10.20;4.23;;;9.30;99.90;;;;;;5011398;28;20305;-65
2022/04/23 01:05:09;;;;;;;11.13;4.60;;;9.30;99.90;;;;;;5010931;28;20198;-65
2022/04/23 01:07:41;;;;;;;10.43;4.70;;;9.30;99.90;;;;;;5010521;28;20231;-65
2022/04/23 01:10:08;;;;;;;12.17;4.90;;;9.30;99.90;;;;;;5011325;28;20166;-65
2022/04/23 01:12:35;;;;;;;14.23;4.80;;;9.30;99.90;;;;;;5010411;28;20171;-64
2022/04/23 01:15:11;;;;;;;11.93;5.13;;;9.30;99.90;;;;;;5010971;28;20637;-64
2022/04/23 01:17:38;;;;;;;13.37;5.30;;;9.30;99.90;;;;;;5011103;28;20313;-64
2022/04/23 01:20:05;;;;;;;13.27;4.83;;;9.30;99.90;;;;;;5010833;28;20767;-64
2022/04/23 01:22:32;;;;;;;18.83;5.70;;;9.20;99.90;;;;;;5011248;28;20693;-64
2022/04/23 01:24:58;;;;;;;18.20;5.17;;;9.20;99.90;;;;;;5010671;28;20222;-64
2022/04/23 01:27:28;;;;;;;11.30;5.53;;;9.20;99.90;;;;;;5009139;28;20564;-64
2022/04/23 01:29:56;;;;;;;12.20;5.37;;;9.30;99.90;;;;;;5009866;28;20232;-64
2022/04/23 01:32:22;;;;;;;12.73;5.47;;;9.40;99.90;;;;;;4990664;28;20190;-64
2022/04/23 01:34:49;;;;;;;13.73;5.97;;;9.40;99.90;;;;;;4993932;28;20723;-64
2022/04/23 01:37:17;;;;;;;9.33;5.20;;;9.40;99.90;;;;;;5009582;28;20182;-64
2022/04/23 01:39:44;;;;;;;11.20;5.60;;;9.40;99.90;;;;;;5011063;28;20265;-64
2022/04/23 01:42:10;;;;;;;17.17;5.93;;;9.40;99.90;;;;;;5011345;28;20702;-64
2022/04/23 01:44:36;;;;;;;15.80;5.77;;;9.40;99.90;;;;;;5011047;28;20178;-63
2022/04/23 01:47:03;;;;;;;14.73;5.97;;;9.40;99.90;;;;;;5010975;28;20214;-64
2022/04/23 01:49:28;;;;;;;12.80;6.00;;;9.40;99.90;;;;;;5009976;28;20229;-64
2022/04/23 01:51:54;;;;;;;14.57;5.80;;;9.40;99.90;;;;;;5010955;28;20174;-64
2022/04/23 01:54:20;;;;;;;17.80;6.17;;;9.40;99.90;;;;;;5009206;28;20186;-66
2022/04/23 01:56:46;;;;;;;13.77;6.57;;;9.40;99.90;;;;;;5010493;28;20178;-65
2022/04/23 01:59:12;;;;;;;16.93;6.90;;;9.30;99.90;;;;;;5010588;28;20217;-65
2022/04/23 02:01:38;;;;;;;14.53;5.97;;;9.20;99.90;;;;;;5008881;28;20174;-66
2022/04/23 02:04:06;;;;;;;16.10;6.43;;;9.30;99.90;;;;;;5010681;28;20181;-66
2022/04/23 02:06:36;;;;;;;17.20;6.33;;;9.20;99.90;;;;;;5010018;28;20298;-66
2022/04/23 02:09:03;;;;;;;13.17;6.67;;;9.30;99.90;;;;;;5009867;28;20189;-67
2022/04/23 02:11:29;;;;;;;20.20;7.03;;;9.30;99.90;;;;;;5011175;28;20182;-66
2022/04/23 02:13:55;;;;;;;15.37;7.00;;;9.30;99.90;;;;;;5013487;28;20669;-66
2022/04/23 02:16:21;;;;;;;20.80;6.60;;;9.30;99.90;;;;;;5013932;28;20209;-65
2022/04/23 02:18:46;;;;;;;20.80;6.60;;;9.30;99.90;;;;;;5014140;28;20171;-66
2022/04/23 02:21:12;;;;;;;16.43;7.17;;;9.30;99.90;;;;;;5013170;28;20194;-66
2022/04/23 02:23:38;;;;;;;17.20;6.43;;;9.20;99.90;;;;;;5012846;28;20260;-66
2022/04/23 02:26:05;;;;;;;21.00;8.03;;;9.30;99.90;;;;;;5012087;28;20668;-66
2022/04/23 02:28:32;;;;;;;16.83;7.00;;;9.30;99.90;;;;;;5013023;28;20513;-66
2022/04/23 02:30:58;;;;;;;17.07;7.13;;;9.30;99.90;;;;;;5013433;28;20175;-66
2022/04/23 02:33:24;;;;;;;18.57;7.37;;;9.20;99.90;;;;;;5013226;28;20175;-66
2022/04/23 02:35:50;;;;;;;18.87;7.13;;;9.20;99.90;;;;;;5013650;28;20265;-66
2022/04/23 02:38:17;;;;;;;21.03;7.67;;;9.20;99.90;;;;;;5012587;28;20316;-66
2022/04/23 02:40:43;;;;;;;21.40;7.30;;;9.30;99.90;;;;;;5013818;28;20189;-66
2022/04/23 02:43:12;;;;;;;23.37;8.60;;;9.30;99.90;;;;;;5013737;28;20281;-66
2022/04/23 02:45:39;;;;;;;18.83;8.03;;;9.30;99.90;;;;;;5013269;28;20205;-66
2022/04/23 02:48:05;;;;;;;22.00;8.33;;;9.20;99.90;;;;;;5013610;28;20252;-66
2022/04/23 02:50:33;;;;;;;20.00;8.03;;;9.30;99.90;;;;;;5012125;28;20250;-66
2022/04/23 02:52:59;;;;;;;15.40;7.60;;;9.30;99.90;;;;;;5012721;28;20186;-66
2022/04/23 02:55:27;;;;;;;20.10;8.13;;;9.30;99.90;;;;;;5012567;28;20703;-66
2022/04/23 02:57:53;;;;;;;19.77;7.90;;;9.30;99.90;;;;;;5013489;28;20177;-66
2022/04/23 03:00:20;;;;;;;25.83;8.27;;;9.30;99.90;;;;;;5012813;28;20175;-66
2022/04/23 03:02:47;;;;;;;26.50;8.50;;;9.30;99.90;;;;;;5012040;28;20199;-66
2022/04/23 03:05:16;;;;;;;17.47;7.60;;;9.40;99.90;;;;;;5013203;28;20174;-65
2022/04/23 03:07:43;;;;;;;17.83;7.87;;;9.40;99.90;;;;;;5013249;28;20261;-65
2022/04/23 03:10:11;;;;;;;15.23;8.53;;;9.30;99.90;;;;;;5012427;28;20182;-65
2022/04/23 03:12:38;;;;;;;26.00;8.57;;;9.30;99.90;;;;;;5013128;28;20171;-65
2022/04/23 03:15:08;;;;;;;19.10;7.77;;;9.30;99.90;;;;;;5012398;28;20257;-65
2022/04/23 03:17:36;;;;;;;23.47;8.63;;;9.40;99.90;;;;;;5012319;28;20216;-65
2022/04/23 03:20:02;;;;;;;22.17;8.60;;;9.20;99.90;;;;;;5011756;28;20186;-65
2022/04/23 03:22:28;;;;;;;15.80;7.90;;;9.30;99.90;;;;;;5011523;28;20209;-66
2022/04/23 03:24:53;;;;;;;23.63;10.03;;;9.40;99.90;;;;;;5012045;28;20257;-65
2022/04/23 03:27:19;;;;;;;29.90;8.37;;;9.30;99.90;;;;;;5012148;28;20296;-66
2022/04/23 03:29:45;;;;;;;20.57;8.23;;;9.30;99.90;;;;;;5012380;28;20175;-66
2022/04/23 03:32:11;;;;;;;17.87;8.33;;;9.30;99.90;;;;;;5011970;28;20182;-66
2022/04/23 03:34:37;;;;;;;19.90;8.90;;;9.30;99.90;;;;;;5012791;28;20202;-66
2022/04/23 03:37:03;;;;;;;30.03;10.10;;;9.40;99.90;;;;;;5011931;28;20256;-66
2022/04/23 03:39:29;;;;;;;26.87;9.57;;;9.40;99.90;;;;;;5012504;28;20465;-64
2022/04/23 03:41:55;;;;;;;24.47;9.30;;;9.30;99.90;;;;;;5012601;28;20695;-64
2022/04/23 03:44:22;;;;;;;21.07;9.10;;;9.30;99.90;;;;;;5012148;28;20189;-63
2022/04/23 03:46:47;;;;;;;28.13;9.40;;;9.20;99.90;;;;;;5010497;28;20285;-64
2022/04/23 03:49:13;;;;;;;28.90;10.07;;;9.20;99.90;;;;;;5010910;28;20714;-65
2022/04/23 03:51:39;;;;;;;23.87;10.23;;;9.10;99.90;;;;;;5012005;28;20178;-65
2022/04/23 03:54:04;;;;;;;25.13;9.97;;;9.10;99.90;;;;;;5010676;28;20206;-65
2022/04/23 03:56:31;;;;;;;28.63;10.47;;;9.00;99.90;;;;;;5010499;28;20198;-65
2022/04/23 03:58:56;;;;;;;27.53;10.57;;;9.00;99.90;;;;;;5012130;28;20179;-65
2022/04/23 04:01:22;;;;;;;32.90;11.73;;;9.10;99.90;;;;;;5011048;28;20171;-64
2022/04/23 04:03:48;;;;;;;34.83;11.03;;;9.00;99.90;;;;;;5011450;28;20252;-64
2022/04/23 04:06:13;;;;;;;29.77;10.23;;;9.10;99.90;;;;;;5012058;28;20289;-64
2022/04/23 04:08:39;;;;;;;33.73;11.07;;;9.10;99.90;;;;;;5011371;28;20170;-61
2022/04/23 04:11:05;;;;;;;26.67;10.50;;;9.10;99.90;;;;;;5010988;28;20174;-65
2022/04/23 04:13:31;;;;;;;24.60;10.97;;;9.00;99.90;;;;;;5011645;28;20641;-64
2022/04/23 04:15:57;;;;;;;32.73;12.27;;;9.00;99.90;;;;;;5011465;28;20174;-64
2022/04/23 04:18:23;;;;;;;22.50;11.50;;;9.00;99.90;;;;;;5010235;28;20166;-64
2022/04/23 04:20:50;;;;;;;29.87;11.10;;;9.00;99.90;;;;;;5011758;28;20185;-64
2022/04/23 04:23:16;;;;;;;25.17;11.87;;;9.00;99.90;;;;;;5009594;28;20544;-64
2022/04/23 04:25:43;;;;;;;36.50;12.80;;;9.10;99.90;;;;;;5011525;28;20629;-64
2022/04/23 04:28:09;;;;;;;35.47;11.53;;;9.10;99.90;;;;;;5009279;28;20528;-64
2022/04/23 04:33:19;;;;;;;32.17;12.47;;;9.20;99.90;;;;;;5010506;28;20193;-64
2022/04/23 04:35:45;;;;;;;31.83;12.10;;;9.20;99.90;;;;;;5011203;28;20286;-63
2022/04/23 04:38:11;;;;;;;32.80;12.53;;;9.30;99.90;;;;;;5011080;28;20269;-64
2022/04/23 04:40:37;;;;;;;25.47;12.53;;;9.30;99.90;;;;;;5011458;28;20198;-63
2022/04/23 04:43:04;;;;;;;27.67;11.90;;;9.40;99.90;;;;;;5011979;28;20272;-64
2022/04/23 04:45:30;;;;;;;35.73;11.83;;;9.40;99.90;;;;;;5011150;28;20167;-65
2022/04/23 04:47:56;;;;;;;33.30;12.23;;;9.50;99.90;;;;;;5010599;28;20214;-64
2022/04/23 04:50:23;;;;;;;37.23;13.00;;;9.50;99.90;;;;;;5009544;28;20650;-65
2022/04/23 04:52:49;;;;;;;30.90;12.47;;;9.50;99.90;;;;;;5010508;28;20221;-65
2022/04/23 04:55:15;;;;;;;41.30;12.73;;;9.50;99.90;;;;;;5011325;28;20185;-65
2022/04/23 04:57:42;;;;;;;31.23;12.97;;;9.50;99.90;;;;;;4998031;28;20183;-65
2022/04/23 05:00:08;;;;;;;30.17;12.00;;;9.50;99.90;;;;;;4991883;28;20175;-64
2022/04/23 05:02:34;;;;;;;28.67;11.90;;;9.50;99.90;;;;;;5010206;28;20190;-64
2022/04/23 05:05:00;;;;;;;39.87;12.70;;;9.60;99.90;;;;;;5009232;28;20170;-64
2022/04/23 05:07:26;;;;;;;31.47;12.63;;;9.60;99.90;;;;;;5011178;28;20238;-64
2022/04/23 05:09:51;;;;;;;34.83;13.60;;;9.60;99.90;;;;;;5011172;28;20232;-64
2022/04/23 05:12:17;;;;;;;31.73;12.97;;;9.60;99.90;;;;;;5010237;28;20209;-64
2022/04/23 05:14:43;;;;;;;34.97;12.00;;;9.60;99.90;;;;;;5011175;28;20235;-65
2022/04/23 05:17:09;;;;;;;40.23;13.90;;;9.60;99.90;;;;;;5009054;28;20541;-65
2022/04/23 05:19:35;;;;;;;33.17;13.07;;;9.60;99.90;;;;;;5007889;28;20179;-65
2022/04/23 05:22:00;;;;;;;34.80;12.97;;;9.60;99.90;;;;;;5009700;28;20179;-65
2022/04/23 05:24:26;;;;;;;42.40;12.93;;;9.70;99.90;;;;;;5010806;28;20233;-65
2022/04/23 05:26:52;;;;;;;32.63;13.20;;;9.70;99.90;;;;;;5010705;28;20646;-66
2022/04/23 05:29:18;;;;;;;31.20;13.00;;;9.70;99.90;;;;;;5010348;28;20530;-66
2022/04/23 05:31:43;;;;;;;33.67;13.57;;;9.70;99.90;;;;;;5011010;28;20255;-66
2022/04/23 05:34:09;;;;;;;31.73;13.27;;;9.80;99.90;;;;;;5010206;28;20545;-66
2022/04/23 05:36:35;;;;;;;29.67;13.03;;;9.70;99.90;;;;;;5010966;28;20178;-66
2022/04/23 05:39:00;;;;;;;28.30;13.00;;;9.70;99.90;;;;;;5010975;28;20250;-66
2022/04/23 05:41:26;;;;;;;30.57;13.27;;;9.80;99.90;;;;;;5010080;28;20186;-65
2022/04/23 05:43:52;;;;;;;29.73;13.07;;;9.80;99.90;;;;;;5008524;28;20171;-66
2022/04/23 05:46:18;;;;;;;35.07;13.80;;;9.80;99.90;;;;;;5014616;28;20234;-66
2022/04/23 05:48:44;;;;;;;39.63;13.60;;;9.90;99.90;;;;;;5014070;28;20736;-65
2022/04/23 05:51:10;;;;;;;35.50;13.80;;;10.10;99.90;;;;;;5013605;28;20190;-65
2022/04/23 05:53:36;;;;;;;30.03;13.90;;;9.90;99.90;;;;;;5013903;28;20174;-65
2022/04/23 05:56:03;;;;;;;37.90;14.10;;;9.90;99.90;;;;;;5013985;28;20186;-65
2022/04/23 05:58:28;;;;;;;32.00;14.30;;;10.00;99.90;;;;;;5014126;28;20171;-65
2022/04/23 06:00:54;;;;;;;31.63;13.80;;;9.90;99.90;;;;;;5012732;28;20186;-66
2022/04/23 06:03:20;;;;;;;36.60;13.60;;;9.90;99.90;;;;;;5013772;28;20186;-66
2022/04/23 06:05:46;;;;;;;35.77;14.73;;;10.00;99.90;;;;;;5013684;28;20166;-66
2022/04/23 06:08:12;;;;;;;30.73;13.97;;;10.00;99.90;;;;;;5013130;28;20193;-66
2022/04/23 06:10:38;;;;;;;33.67;14.00;;;10.00;99.90;;;;;;5013533;28;20210;-66
2022/04/23 06:13:06;;;;;;;36.40;13.87;;;10.00;99.90;;;;;;5014116;28;20645;-66
2022/04/23 06:15:32;;;;;;;34.23;14.67;;;10.10;99.90;;;;;;5013829;28;20170;-66
2022/04/23 06:17:58;;;;;;;31.80;14.00;;;10.10;99.90;;;;;;5011698;28;20218;-66
2022/04/23 06:20:24;;;;;;;40.07;13.03;;;10.20;99.90;;;;;;5014064;28;20564;-65
2022/04/23 06:22:49;;;;;;;32.63;14.00;;;10.20;99.90;;;;;;5012776;28;20664;-65
2022/04/23 06:25:15;;;;;;;28.87;13.80;;;10.20;99.90;;;;;;5013368;28;20218;-66
2022/04/23 06:27:41;;;;;;;30.93;13.63;;;10.30;99.90;;;;;;5012920;28;20214;-66
2022/04/23 06:30:09;;;;;;;39.10;14.77;;;10.30;99.90;;;;;;5013949;28;20175;-66
2022/04/23 06:32:39;;;;;;;36.47;14.03;;;10.40;99.90;;;;;;5011761;28;20202;-66
2022/04/23 06:35:06;;;;;;;35.87;14.03;;;10.40;99.90;;;;;;5011236;28;20174;-72
2022/04/23 06:37:43;;;;;;;35.10;13.50;;;10.50;99.90;;;;;;5014055;28;20179;-61
2022/04/23 06:40:11;;;;;;;32.40;13.83;;;10.60;99.90;;;;;;5011386;28;20178;-64
2022/04/23 06:42:37;;;;;;;38.77;14.10;;;10.60;99.90;;;;;;5009987;28;20189;-62
2022/04/23 06:45:04;;;;;;;32.67;13.77;;;10.70;99.90;;;;;;5008100;28;20184;-69
2022/04/23 06:47:30;;;;;;;40.37;14.00;;;10.80;99.90;;;;;;5012170;28;20250;-64
2022/04/23 06:49:59;;;;;;;34.40;13.37;;;10.80;99.90;;;;;;5013335;28;20237;-63
2022/04/23 06:52:28;;;;;;;31.10;13.20;;;10.80;99.90;;;;;;5013416;28;20284;-63
2022/04/23 06:54:54;;;;;;;30.97;13.83;;;10.90;99.90;;;;;;4999694;28;20190;-63
2022/04/23 06:57:24;;;;;;;37.43;13.60;;;10.90;99.90;;;;;;4992904;28;20167;-64
2022/04/23 06:59:53;;;;;;;38.40;14.63;;;11.00;99.90;;;;;;4993701;28;20206;-62
2022/04/23 07:02:20;;;;;;;37.57;13.63;;;11.00;99.90;;;;;;4998282;28;20173;-64
2022/04/23 07:04:46;;;;;;;31.10;12.83;;;11.10;99.90;;;;;;5009151;28;20263;-64
2022/04/23 07:07:12;;;;;;;35.77;13.97;;;11.10;99.90;;;;;;5009847;28;20241;-64
2022/04/23 07:09:38;;;;;;;34.93;12.00;;;11.00;99.90;;;;;;5013135;28;20167;-65
2022/04/23 07:12:05;;;;;;;30.83;12.30;;;11.10;99.90;;;;;;5000959;28;20183;-64
2022/04/23 07:14:32;;;;;;;34.53;12.37;;;11.20;99.90;;;;;;4993512;28;20180;-64
2022/04/23 07:16:58;;;;;;;35.97;13.10;;;11.20;99.90;;;;;;4994396;28;20175;-65
2022/04/23 07:19:24;;;;;;;39.63;12.33;;;11.20;99.90;;;;;;4993065;28;20183;-65
2022/04/23 07:21:50;;;;;;;27.23;11.37;;;11.20;99.90;;;;;;5010180;28;20179;-65
2022/04/23 07:24:15;;;;;;;32.07;11.67;;;11.30;99.90;;;;;;5010996;28;20225;-69
2022/04/23 07:26:42;;;;;;;30.00;11.83;;;11.30;99.90;;;;;;5011442;28;20216;-61
2022/04/23 07:29:10;;;;;;;31.80;12.03;;;11.30;99.90;;;;;;5011325;28;20221;-67
2022/04/23 07:31:37;;;;;;;25.97;11.07;;;11.40;99.90;;;;;;5012596;28;20182;-65
2022/04/23 07:39:34;;;;;;;39.07;11.80;;;11.50;99.90;;;;;;5012125;28;20270;-68
2022/04/23 07:42:00;;;;;;;29.27;10.73;;;11.50;99.90;;;;;;5011853;28;20186;-68
2022/04/23 07:44:26;;;;;;;37.07;11.20;;;11.60;99.90;;;;;;5012150;28;20179;-67
2022/04/23 07:46:52;;;;;;;26.73;10.80;;;11.60;99.90;;;;;;5012288;28;20213;-67
2022/04/23 07:49:18;;;;;;;38.17;11.63;;;11.70;99.90;;;;;;5011782;28;20175;-66
2022/04/23 07:51:49;;;;;;;32.53;10.93;;;11.70;99.90;;;;;;5011797;28;20178;-66
2022/04/23 07:54:15;;;;;;;35.70;11.17;;;11.80;99.90;;;;;;4992675;28;20226;-65
2022/04/23 07:56:41;;;;;;;21.07;10.60;;;11.80;99.90;;;;;;4994662;28;20174;-66
2022/04/23 07:59:08;;;;;;;32.93;11.50;;;11.80;99.90;;;;;;4996122;28;20186;-67
2022/04/23 08:01:33;;;;;;;35.20;11.97;;;12.00;99.90;;;;;;5009958;28;20183;-68
2022/04/23 08:04:02;;;;;;;32.97;12.87;;;12.00;99.90;;;;;;5004720;28;20588;-67
2022/04/23 08:06:28;;;;;;;34.90;10.73;;;12.10;99.90;;;;;;5000047;28;20214;-68
2022/04/23 08:08:54;;;;;;;30.77;11.43;;;12.10;99.90;;;;;;5000954;28;20181;-67
2022/04/23 08:11:22;;;;;;;32.40;10.93;;;12.40;99.90;;;;;;5010673;28;20175;-62
2022/04/23 08:13:50;;;;;;;32.10;11.07;;;12.70;99.90;;;;;;5010992;28;20200;-66
2022/04/23 08:16:16;;;;;;;37.33;11.10;;;12.90;99.90;;;;;;5000790;28;20277;-61
2022/04/23 08:18:42;;;;;;;28.52;10.43;;;13.00;99.90;;;;;;5010547;28;20186;-61
2022/04/23 08:21:07;;;;;;;27.13;10.02;;;13.30;99.90;;;;;;5009586;28;20665;-61
2022/04/23 08:23:33;;;;;;;29.48;10.95;;;13.60;99.90;;;;;;4991885;28;20661;-69
2022/04/23 08:26:05;;;;;;;28.05;10.32;;;13.80;99.90;;;;;;5003498;28;20182;-76
2022/04/23 08:31:15;;;;;;;27.02;9.73;;;14.10;99.90;;;;;;5011906;28;20205;-63
2022/04/23 08:33:59;;;;;;;27.60;9.80;;;14.30;99.90;;;;;;5009774;28;20179;-61
2022/04/23 08:36:29;;;;;;;29.88;10.05;;;14.40;99.90;;;;;;5003712;28;21561;-60
2022/04/23 08:38:58;;;;;;;29.15;9.57;;;15.10;99.90;;;;;;5010122;28;20188;-61
2022/04/23 08:41:28;;;;;;;32.20;9.75;;;15.50;99.90;;;;;;5011347;28;20236;-61
2022/04/23 08:44:05;;;;;;;29.88;9.07;;;15.50;99.90;;;;;;4999803;28;20202;-61
2022/04/23 08:46:36;;;;;;;24.50;9.15;;;15.40;99.90;;;;;;4991349;28;20268;-61
2022/04/23 08:49:11;;;;;;;27.63;9.75;;;15.10;99.90;;;;;;4991736;28;20526;-61
2022/04/23 08:51:39;;;;;;;34.58;11.40;;;14.80;99.90;;;;;;4991678;28;20163;-61
2022/04/23 08:54:13;;;;;;;48.35;10.82;;;14.40;99.90;;;;;;4991516;28;20226;-61
2022/04/23 08:56:42;;;;;;;29.15;9.85;;;14.20;99.90;;;;;;4989539;28;20182;-61
2022/04/23 08:59:11;;;;;;;23.55;9.50;;;14.10;99.90;;;;;;4989388;28;20241;-61
2022/04/23 09:01:38;;;;;;;24.60;10.38;;;14.10;99.90;;;;;;4989765;28;20205;-60
2022/04/23 09:04:06;;;;;;;27.75;10.48;;;14.40;99.90;;;;;;4989505;28;20638;-60
2022/04/23 09:06:41;;;;;;;26.27;10.35;;;14.30;99.90;;;;;;5004538;28;20202;-60
2022/04/23 09:09:19;;;;;;;28.27;10.23;;;14.60;99.90;;;;;;5011023;28;20181;-60
2022/04/23 09:11:50;;;;;;;24.17;9.57;;;14.60;99.90;;;;;;5010951;28;20170;-62
2022/04/23 09:14:23;;;;;;;24.30;9.20;;;14.60;99.90;;;;;;4999314;28;20185;-61
2022/04/23 09:25:11;;;;;;;23.77;10.35;;;14.80;99.90;;;;;;5014807;28;20224;-61
2022/04/23 09:27:38;;;;;;;23.90;9.85;;;14.70;99.90;;;;;;5009966;28;20781;-62
2022/04/23 09:30:05;;;;;;;21.70;9.82;;;15.10;99.90;;;;;;5003506;28;20649;-62
2022/04/23 09:32:31;;;;;;;18.88;9.63;;;14.40;99.90;;;;;;5002229;28;20216;-62
2022/04/23 09:35:11;;;;;;;22.42;9.68;;;14.60;99.90;;;;;;4994587;28;20171;-61
2022/04/23 09:40:33;;;;;;;34.38;10.50;;;14.60;99.90;;;;;;4992788;28;20665;-62
2022/04/23 09:43:05;;;;;;;28.83;10.15;;;14.60;99.90;;;;;;5014154;28;20190;-70
2022/04/23 09:45:33;;;;;;;24.70;9.68;;;14.80;99.90;;;;;;5026230;28;20653;-69
2022/04/23 09:48:11;;;;;;;24.10;9.95;;;15.40;99.90;;;;;;5028764;28;20224;-69
2022/04/23 09:50:37;;;;;;;17.05;10.00;;;14.80;99.90;;;;;;5029030;28;20231;-70
2022/04/23 09:53:13;;;;;;;23.02;10.07;;;14.80;99.90;;;;;;4999407;28;20171;-70
2022/04/23 09:55:39;;;;;;;27.25;9.43;;;14.80;99.90;;;;;;4995547;28;20183;-70
2022/04/23 09:58:09;;;;;;;23.60;10.27;;;14.90;99.90;;;;;;4995038;28;20262;-70
2022/04/23 10:00:37;;;;;;;27.00;10.90;;;14.80;99.90;;;;;;4994643;28;20168;-69
2022/04/23 10:03:06;;;;;;;21.88;9.50;;;14.70;99.90;;;;;;4994950;28;20175;-68
2022/04/23 10:05:37;;;;;;;24.10;10.20;;;14.70;99.90;;;;;;4995338;28;20179;-70
2022/04/23 10:08:09;;;;;;;26.92;10.30;;;14.60;99.90;;;;;;4995330;28;20739;-70
2022/04/23 10:10:42;;;;;;;26.40;11.70;;;14.50;99.90;;;;;;4994525;28;20190;-70
2022/04/23 10:13:10;;;;;;;22.40;11.77;;;14.50;99.90;;;;;;4994591;28;20167;-70
2022/04/23 10:15:37;;;;;;;22.02;10.50;;;14.50;99.90;;;;;;4996796;28;20655;-70
2022/04/23 10:18:07;;;;;;;21.25;10.77;;;14.60;99.90;;;;;;4996374;28;20175;-70
2022/04/23 10:20:34;;;;;;;23.02;10.25;;;14.70;99.90;;;;;;4994207;28;20174;-69
2022/04/23 10:23:24;;;;;;;23.95;10.50;;;14.80;99.90;;;;;;4992638;28;20729;-70
2022/04/23 10:26:01;;;;;;;22.90;10.57;;;14.80;99.90;;;;;;4993999;28;20594;-69
2022/04/23 10:28:28;;;;;;;24.15;11.25;;;14.80;99.90;;;;;;4993724;28;20187;-70
2022/04/23 10:31:15;;;;;;;25.67;10.95;;;14.80;99.90;;;;;;4991247;28;20590;-70
2022/04/23 10:33:51;;;;;;;22.27;11.10;;;14.80;99.90;;;;;;4992342;28;20187;-68
2022/04/23 10:36:19;;;;;;;24.80;11.27;;;14.90;99.90;;;;;;4992422;28;20676;-69
2022/04/23 10:38:51;;;;;;;24.58;11.30;;;14.80;99.90;;;;;;5010938;28;20786;-68
2022/04/23 10:41:21;;;;;;;21.25;11.75;;;14.90;99.90;;;;;;5011623;28;20175;-68
2022/04/23 10:43:52;;;;;;;20.05;11.38;;;14.90;99.90;;;;;;5012106;28;20181;-69
2022/04/23 10:46:36;;;;;;;32.28;12.13;;;15.10;99.90;;;;;;5013046;28;20281;-70
2022/04/23 10:49:25;;;;;;;21.05;12.00;;;15.00;99.90;;;;;;5013499;28;20171;-69
2022/04/23 10:52:00;;;;;;;29.73;11.60;;;15.00;99.90;;;;;;5013301;28;20214;-69
2022/04/23 10:54:42;;;;;;;22.25;12.30;;;14.90;99.90;;;;;;5013603;28;20174;-69
2022/04/23 10:57:09;;;;;;;16.73;11.57;;;14.90;99.90;;;;;;5013546;28;20178;-68
2022/04/23 10:59:45;;;;;;;26.77;11.90;;;15.20;99.90;;;;;;5013385;28;20159;-69
2022/04/23 11:02:19;;;;;;;23.55;12.85;;;14.90;99.90;;;;;;5013236;28;20177;-69
2022/04/23 11:13:49;;;;;;;19.25;12.10;;;15.00;99.90;;;;;;5013137;28;20178;-69
2022/04/23 11:16:19;;;;;;;20.65;12.25;;;15.10;99.90;;;;;;5012864;28;20167;-69
2022/04/23 11:18:52;;;;;;;23.75;11.88;;;15.00;99.90;;;;;;5012607;28;20174;-68
2022/04/23 11:21:23;;;;;;;20.33;11.95;;;15.10;99.90;;;;;;5012940;28;20167;-69
2022/04/23 11:23:49;;;;;;;19.48;12.40;;;15.20;99.90;;;;;;5012810;28;20223;-70
2022/04/23 11:26:22;;;;;;;17.42;11.85;;;15.20;99.90;;;;;;5011339;28;20198;-69
2022/04/23 11:28:59;;;;;;;20.27;11.82;;;15.30;99.90;;;;;;5011335;28;20769;-69
2022/04/23 11:31:26;;;;;;;23.55;12.55;;;15.40;99.90;;;;;;5012735;28;20166;-69
2022/04/23 11:33:57;;;;;;;16.52;11.13;;;15.50;99.90;;;;;;5012761;28;20641;-68
2022/04/23 11:36:30;;;;;;;25.05;12.23;;;15.60;99.90;;;;;;5011231;28;20183;-69
2022/04/23 11:39:03;;;;;;;18.02;11.40;;;15.60;99.90;;;;;;5012396;28;20178;-69
2022/04/23 11:41:30;;;;;;;27.33;13.00;;;15.80;99.90;;;;;;5010918;28;20600;-69
2022/04/23 11:43:56;;;;;;;23.90;12.18;;;15.80;99.90;;;;;;5012010;28;20173;-69
2022/04/23 11:46:22;;;;;;;23.90;12.07;;;15.80;99.90;;;;;;5012081;28;20235;-70
2022/04/23 11:48:50;;;;;;;26.08;13.75;;;15.70;99.90;;;;;;5012252;28;20197;-70
2022/04/23 11:51:18;;;;;;;24.23;12.18;;;15.60;99.90;;;;;;5012234;28;20174;-69
2022/04/23 11:53:57;;;;;;;20.92;11.60;;;15.70;99.90;;;;;;5010892;28;20265;-69
2022/04/23 11:56:33;;;;;;;22.05;12.60;;;15.90;99.90;;;;;;5011986;28;20265;-69
2022/04/23 11:59:03;;;;;;;22.08;12.52;;;16.00;99.90;;;;;;5012023;28;20233;-69
2022/04/23 12:01:29;;;;;;;20.88;12.70;;;15.70;99.90;;;;;;5011813;28;20180;-69
2022/04/23 12:03:56;;;;;;;22.98;12.88;;;15.90;99.90;;;;;;5011795;28;20166;-69
2022/04/23 12:06:24;;;;;;;17.33;11.55;;;16.00;99.90;;;;;;5011771;28;20290;-69
2022/04/23 12:08:50;;;;;;;22.15;12.23;;;16.10;99.90;;;;;;5011947;28;20204;-72
2022/04/23 12:11:23;;;;;;;21.95;12.57;;;16.00;99.90;;;;;;5011986;28;20643;-70
2022/04/23 12:13:49;;;;;;;20.27;12.20;;;16.00;99.90;;;;;;5011814;28;20186;-69
2022/04/23 12:16:36;;;;;;;19.33;12.65;;;16.00;99.90;;;;;;5012069;28;20246;-68
2022/04/23 12:19:13;;;;;;;18.38;10.98;;;16.10;99.90;;;;;;5011698;28;20220;-67
2022/04/23 12:21:54;;;;;;;18.92;11.70;;;16.30;99.90;;;;;;5011675;28;20174;-68
2022/04/23 12:24:31;;;;;;;24.23;12.63;;;16.40;99.90;;;;;;5011570;28;20241;-62
2022/04/23 12:27:06;;;;;;;18.42;11.82;;;16.60;99.90;;;;;;5010732;28;20264;-67
2022/04/23 12:40:44;;;;;;;20.13;11.88;;;17.50;99.90;;;;;;5011481;28;20190;-63
2022/04/23 12:43:25;;;;;;;17.67;11.23;;;17.70;99.90;;;;;;5011494;28;20178;-63
2022/04/23 12:46:05;;;;;;;19.98;11.88;;;18.10;99.90;;;;;;5011295;28;20525;-63
2022/04/23 12:48:33;;;;;;;17.15;10.55;;;18.60;99.90;;;;;;5011296;28;20194;-63
2022/04/23 12:51:06;;;;;;;23.27;11.85;;;19.40;99.90;;;;;;5009083;28;20201;-63
2022/04/23 12:53:34;;;;;;;17.30;10.85;;;19.90;99.90;;;;;;4999962;28;20241;-63
2022/04/23 12:56:03;;;;;;;19.10;10.52;;;20.30;99.90;;;;;;5010933;28;20170;-63
2022/04/23 12:58:30;;;;;;;17.70;10.80;;;20.20;99.90;;;;;;5010952;28;20274;-64
2022/04/23 13:00:56;;;;;;;17.50;10.95;;;20.30;99.90;;;;;;5010977;28;20178;-63
2022/04/23 13:05:54;;;;;;;14.43;10.63;;;20.60;99.90;;;;;;5010949;28;20214;-63
2022/04/23 13:13:48;;;;;;;14.45;9.85;;;21.20;99.90;;;;;;5010294;28;20208;-63
2022/04/23 13:16:14;;;;;;;18.00;9.85;;;21.20;99.90;;;;;;5010807;28;20171;-63
2022/04/23 13:18:40;;;;;;;20.73;10.55;;;21.50;99.90;;;;;;5010588;28;20170;-63
2022/04/23 13:21:07;;;;;;;18.85;10.98;;;21.40;99.90;;;;;;5010089;28;20170;-63
2022/04/23 13:23:33;;;;;;;16.95;10.73;;;21.50;99.90;;;;;;5004409;28;20179;-65
2022/04/23 13:26:00;;;;;;;16.95;10.48;;;20.70;99.90;;;;;;5008821;28;20212;-64
2022/04/23 13:28:25;;;;;;;14.73;11.00;;;20.90;99.90;;;;;;5008730;28;20194;-65
2022/04/23 13:30:52;;;;;;;15.07;11.10;;;20.50;99.90;;;;;;5010481;28;20170;-66